Time;durP1;ratioP1;P1;durP2;ratioP2;P2;SDS_P1;SDS_P2;PMS_P1;PMS_P2;Temp;Humidity;BMP_temperature;BMP_pressure;BME280_temperature;BME280_humidity;BME280_pressure;Samples;Min_cycle;Max_cycle;Signal;HPM_P1;HPM_P2
2023/05/14 00:01:25;;;;;;;13.02;8.05;;;;;;;14.20;100.00;97892.28;5114247;28;20096;-83
2023/05/14 00:03:50;;;;;;;14.95;8.80;;;;;;;14.15;100.00;97885.50;5112874;28;20028;-84
2023/05/14 00:06:16;;;;;;;18.65;8.77;;;;;;;14.08;100.00;97879.69;5096565;28;20027;-84
2023/05/14 00:08:41;;;;;;;10.98;7.88;;;;;;;14.14;100.00;97884.66;5096074;28;20055;-83
2023/05/14 00:11:07;;;;;;;13.02;8.63;;;;;;;14.11;100.00;97876.78;5113264;28;20027;-84
2023/05/14 00:13:34;;;;;;;11.07;7.32;;;;;;;14.07;100.00;97889.59;5096632;28;20507;-82
2023/05/14 00:15:59;;;;;;;10.88;6.30;;;;;;;13.90;100.00;97898.00;5112750;28;20055;-81
2023/05/14 00:18:25;;;;;;;10.13;6.25;;;;;;;13.89;100.00;97903.47;5113021;28;20124;-82
2023/05/14 00:20:53;;;;;;;9.52;6.55;;;;;;;13.94;100.00;97910.25;5113879;28;20028;-81
2023/05/14 00:23:21;;;;;;;13.57;6.65;;;;;;;13.97;100.00;97909.16;5107120;28;20084;-81
2023/05/14 00:25:47;;;;;;;11.50;7.10;;;;;;;13.95;100.00;97905.72;5095739;28;20490;-81
2023/05/14 00:28:12;;;;;;;15.73;8.18;;;;;;;13.91;100.00;97904.22;5112590;28;20043;-81
2023/05/14 00:30:38;;;;;;;11.98;8.35;;;;;;;13.95;100.00;97911.09;5112606;28;20019;-81
2023/05/14 00:33:05;;;;;;;13.70;8.43;;;;;;;13.94;100.00;97906.69;5112385;28;20408;-81
2023/05/14 00:35:30;;;;;;;11.90;7.50;;;;;;;13.89;100.00;97895.41;5108070;28;20023;-82
2023/05/14 00:37:56;;;;;;;15.50;8.05;;;;;;;13.91;100.00;97896.13;5113302;28;20038;-82
2023/05/14 00:40:25;;;;;;;14.05;8.18;;;;;;;13.99;100.00;97899.19;5095185;28;20062;-82
2023/05/14 00:42:51;;;;;;;13.93;8.13;;;;;;;13.96;100.00;97883.25;5112157;28;20023;-82
2023/05/14 00:45:16;;;;;;;12.50;8.52;;;;;;;14.02;100.00;97878.31;5112171;28;20099;-82
2023/05/14 00:47:42;;;;;;;15.60;9.20;;;;;;;14.13;100.00;97877.53;5112349;28;20585;-81
2023/05/14 00:50:08;;;;;;;16.70;8.18;;;;;;;14.09;100.00;97871.50;5094922;28;20554;-81
2023/05/14 00:52:34;;;;;;;18.58;8.55;;;;;;;14.05;100.00;97879.91;5095098;28;20405;-82
2023/05/14 00:55:02;;;;;;;11.95;7.97;;;;;;;13.98;100.00;97867.84;5112006;28;20035;-82
2023/05/14 00:57:28;;;;;;;13.88;8.10;;;;;;;14.08;100.00;97872.50;5093644;28;20080;-81
2023/05/14 00:59:54;;;;;;;11.75;8.52;;;;;;;14.03;100.00;97868.38;5111874;28;20102;-81
2023/05/14 01:02:19;;;;;;;12.85;8.50;;;;;;;14.05;100.00;97871.84;5094919;28;20487;-81
2023/05/14 01:04:45;;;;;;;12.00;7.43;;;;;;;13.91;100.00;97855.81;5112093;28;20494;-81
2023/05/14 01:07:36;;;;;;;14.32;7.80;;;;;;;13.88;100.00;97866.78;5111881;28;20081;-81
2023/05/14 01:10:09;;;;;;;9.57;7.10;;;;;;;13.85;100.00;97864.28;5111614;28;20479;-81
2023/05/14 01:12:57;;;;;;;11.73;6.93;;;;;;;13.87;100.00;97865.06;5113104;28;20024;-81
2023/05/14 01:15:31;;;;;;;10.75;6.85;;;;;;;13.76;100.00;97851.50;5113654;28;20098;-81
2023/05/14 01:18:17;;;;;;;9.63;6.68;;;;;;;13.84;100.00;97852.69;5112160;28;20027;-81
2023/05/14 01:20:44;;;;;;;14.15;6.97;;;;;;;13.80;100.00;97853.00;5111805;28;20118;-82
2023/05/14 01:23:10;;;;;;;11.00;7.63;;;;;;;13.80;100.00;97861.94;5094196;28;20030;-81
2023/05/14 01:25:36;;;;;;;12.25;7.47;;;;;;;13.84;100.00;97873.34;5112285;28;20035;-82
2023/05/14 01:28:17;;;;;;;15.30;7.82;;;;;;;13.78;100.00;97866.56;5113058;28;20055;-82
2023/05/14 01:30:55;;;;;;;12.15;7.05;;;;;;;13.78;100.00;97865.72;5095883;28;20031;-82
2023/05/14 01:33:21;;;;;;;14.77;7.50;;;;;;;13.80;100.00;97864.63;5112592;28;20488;-82
2023/05/14 01:35:47;;;;;;;10.15;6.78;;;;;;;13.77;100.00;97864.84;5094611;28;20089;-82
2023/05/14 01:38:15;;;;;;;12.27;7.40;;;;;;;13.77;100.00;97858.59;5111622;28;20085;-82
2023/05/14 01:40:41;;;;;;;11.90;7.85;;;;;;;13.83;100.00;97874.31;5111498;28;20055;-82
2023/05/14 01:43:07;;;;;;;11.98;7.43;;;;;;;13.81;100.00;97868.19;5111269;28;20066;-82
2023/05/14 01:45:34;;;;;;;12.00;6.75;;;;;;;13.82;100.00;97868.06;5110996;28;20566;-82
2023/05/14 01:48:00;;;;;;;16.30;7.38;;;;;;;13.81;100.00;97876.25;5093687;28;20051;-82
2023/05/14 01:50:25;;;;;;;12.68;7.30;;;;;;;13.82;100.00;97884.19;5112389;28;20020;-82
2023/05/14 01:52:55;;;;;;;13.88;7.50;;;;;;;13.84;100.00;97887.63;5111073;28;20427;-81
2023/05/14 01:55:21;;;;;;;11.23;8.05;;;;;;;13.82;100.00;97883.34;5094531;28;20088;-82
2023/05/14 01:57:46;;;;;;;14.55;7.97;;;;;;;13.83;100.00;97890.44;5094067;28;20027;-82
2023/05/14 02:00:12;;;;;;;11.25;7.72;;;;;;;13.85;100.00;97899.25;5093839;28;20039;-81
2023/05/14 02:02:38;;;;;;;13.65;7.72;;;;;;;13.86;100.00;97885.72;5093740;28;20054;-81
2023/05/14 02:05:03;;;;;;;15.43;7.90;;;;;;;13.83;100.00;97880.56;5112225;28;20023;-82
2023/05/14 02:07:29;;;;;;;14.10;7.45;;;;;;;13.79;100.00;97888.94;5110539;28;20050;-82
2023/05/14 02:09:55;;;;;;;13.45;7.78;;;;;;;13.83;100.00;97882.38;5110910;28;20028;-82
2023/05/14 02:12:21;;;;;;;11.27;7.18;;;;;;;13.76;100.00;97871.19;5093622;28;20508;-82
2023/05/14 02:14:46;;;;;;;11.45;7.32;;;;;;;13.77;100.00;97882.81;5093959;28;20020;-82
2023/05/14 02:17:14;;;;;;;9.80;7.30;;;;;;;13.80;100.00;97874.53;5093447;28;20043;-81
2023/05/14 02:19:40;;;;;;;11.60;7.05;;;;;;;13.84;100.00;97878.72;5110412;28;20027;-82
2023/05/14 02:22:05;;;;;;;14.20;7.97;;;;;;;13.74;100.00;97874.94;5110236;28;20030;-81
2023/05/14 02:24:31;;;;;;;10.35;7.43;;;;;;;13.78;100.00;97888.06;5093743;28;20336;-82
2023/05/14 02:26:58;;;;;;;11.63;8.13;;;;;;;13.71;100.00;97897.53;5093459;28;20022;-81
2023/05/14 02:29:24;;;;;;;15.27;9.30;;;;;;;13.65;100.00;97889.03;5093583;28;20028;-81
2023/05/14 02:31:50;;;;;;;16.85;9.52;;;;;;;13.50;100.00;97889.09;5093477;28;20031;-82
2023/05/14 02:34:15;;;;;;;13.15;8.65;;;;;;;13.51;100.00;97893.53;5111458;28;20039;-81
2023/05/14 02:36:41;;;;;;;14.77;9.15;;;;;;;13.54;100.00;97904.06;5093256;28;20192;-82
2023/05/14 02:39:06;;;;;;;14.27;8.80;;;;;;;13.47;100.00;97916.19;5110378;28;20024;-81
2023/05/14 02:41:32;;;;;;;13.10;8.38;;;;;;;13.42;100.00;97896.84;5110817;28;20034;-82
2023/05/14 02:43:57;;;;;;;13.70;7.93;;;;;;;13.45;100.00;97904.69;5110449;28;20043;-82
2023/05/14 02:46:23;;;;;;;19.05;8.00;;;;;;;13.50;100.00;97910.59;5110212;28;20027;-82
2023/05/14 02:48:48;;;;;;;11.43;8.07;;;;;;;13.49;100.00;97902.66;5110426;28;20439;-82
2023/05/14 02:51:15;;;;;;;11.93;7.70;;;;;;;13.43;100.00;97909.31;5093175;28;20024;-82
2023/05/14 02:53:40;;;;;;;15.88;8.65;;;;;;;13.43;100.00;97912.00;5093388;28;20464;-82
2023/05/14 02:56:06;;;;;;;12.10;8.27;;;;;;;13.50;100.00;97913.28;5111387;28;20084;-81
2023/05/14 02:58:33;;;;;;;10.82;7.75;;;;;;;13.54;100.00;97914.81;5093678;28;20088;-82
2023/05/14 03:00:58;;;;;;;13.23;8.57;;;;;;;13.61;100.00;97917.06;5110055;28;20059;-83
2023/05/14 03:03:24;;;;;;;17.42;8.35;;;;;;;13.62;100.00;97924.19;5109706;28;20062;-82
2023/05/14 03:05:49;;;;;;;12.80;7.20;;;;;;;13.57;100.00;97922.66;5110121;28;20055;-82
2023/05/14 03:08:15;;;;;;;13.45;7.22;;;;;;;13.48;100.00;97923.28;5109812;28;20067;-81
2023/05/14 03:10:40;;;;;;;10.98;7.18;;;;;;;13.42;100.00;97929.06;5093133;28;20081;-82
2023/05/14 03:13:06;;;;;;;13.38;7.88;;;;;;;13.38;100.00;97937.47;5110491;28;20106;-82
2023/05/14 03:15:31;;;;;;;14.45;8.05;;;;;;;13.27;100.00;97923.88;5093587;28;20023;-82
2023/05/14 03:17:57;;;;;;;12.43;7.82;;;;;;;13.26;100.00;97928.38;5110206;28;20030;-82
2023/05/14 03:20:23;;;;;;;14.57;8.57;;;;;;;13.31;100.00;97942.38;5095476;28;20043;-81
2023/05/14 03:22:49;;;;;;;13.57;8.90;;;;;;;13.38;100.00;97948.22;5113991;28;20024;-82
2023/05/14 03:25:14;;;;;;;17.45;9.27;;;;;;;13.34;100.00;97946.69;5113728;28;20054;-81
2023/05/14 03:27:40;;;;;;;16.92;9.02;;;;;;;13.27;100.00;97950.72;5114403;28;20137;-82
2023/05/14 03:30:06;;;;;;;16.20;8.82;;;;;;;13.32;100.00;97964.75;5113694;28;20034;-82
2023/05/14 03:32:32;;;;;;;13.98;9.40;;;;;;;13.37;100.00;97968.84;5096814;28;20419;-81
2023/05/14 03:34:57;;;;;;;14.43;9.52;;;;;;;13.28;100.00;97972.13;5096367;28;20023;-82
2023/05/14 03:37:23;;;;;;;16.33;9.77;;;;;;;13.36;100.00;97985.06;5114077;28;20119;-81
2023/05/14 03:39:48;;;;;;;12.63;9.43;;;;;;;13.33;100.00;97980.75;5114044;28;20011;-82
2023/05/14 03:42:14;;;;;;;17.27;9.15;;;;;;;13.32;100.00;97976.31;5096353;28;20026;-81
2023/05/14 03:44:39;;;;;;;13.32;8.95;;;;;;;13.34;100.00;97973.56;5113661;28;20441;-82
2023/05/14 03:47:05;;;;;;;13.40;8.40;;;;;;;13.42;100.00;97980.13;5113546;28;20020;-82
2023/05/14 03:49:30;;;;;;;11.27;7.95;;;;;;;13.42;100.00;97960.47;5096155;28;20026;-80
2023/05/14 03:51:58;;;;;;;16.17;9.02;;;;;;;13.55;100.00;97964.94;5113382;28;20088;-83
2023/05/14 03:54:24;;;;;;;11.07;7.82;;;;;;;13.68;100.00;97946.16;5113308;28;20506;-81
2023/05/14 03:56:50;;;;;;;10.30;7.70;;;;;;;13.83;100.00;97944.22;5113855;28;20028;-82
2023/05/14 03:59:15;;;;;;;13.75;7.82;;;;;;;13.88;100.00;97936.69;5096567;28;20065;-81
2023/05/14 04:01:42;;;;;;;10.52;7.38;;;;;;;14.08;100.00;97955.03;5114563;28;20062;-81
2023/05/14 04:04:08;;;;;;;14.50;8.43;;;;;;;14.04;100.00;97951.69;5112424;28;20483;-75
2023/05/14 04:06:33;;;;;;;14.88;7.80;;;;;;;14.13;100.00;97947.47;5113028;28;20037;-81
2023/05/14 04:08:59;;;;;;;10.68;7.88;;;;;;;14.12;100.00;97940.38;5113066;28;20024;-81
2023/05/14 04:11:24;;;;;;;11.45;7.93;;;;;;;14.16;100.00;97936.50;5112846;28;20092;-81
2023/05/14 04:13:50;;;;;;;15.15;8.07;;;;;;;14.25;100.00;97935.00;5112826;28;20471;-81
2023/05/14 04:16:15;;;;;;;11.85;8.48;;;;;;;14.30;100.00;97939.09;5112467;28;20020;-82
2023/05/14 04:18:41;;;;;;;10.63;8.05;;;;;;;14.26;100.00;97951.03;5095663;28;20026;-81
2023/05/14 04:21:06;;;;;;;14.25;8.80;;;;;;;14.25;100.00;97933.16;5112490;28;20024;-82
2023/05/14 04:23:32;;;;;;;14.55;7.68;;;;;;;14.27;100.00;97947.38;5113249;28;20031;-81
2023/05/14 04:25:58;;;;;;;13.02;8.13;;;;;;;14.30;100.00;97936.41;5112455;28;20031;-82
2023/05/14 04:28:23;;;;;;;11.98;7.28;;;;;;;14.44;100.00;97941.69;5095364;28;20414;-80
2023/05/14 04:30:49;;;;;;;13.70;7.45;;;;;;;14.49;100.00;97918.00;5112111;28;20058;-82
2023/05/14 04:33:15;;;;;;;10.95;8.23;;;;;;;14.60;100.00;97919.94;5112218;28;20043;-82
2023/05/14 04:35:40;;;;;;;16.67;10.18;;;;;;;14.79;100.00;97911.38;5111597;28;20104;-81
2023/05/14 04:38:06;;;;;;;11.77;7.85;;;;;;;14.68;100.00;97900.50;5095160;28;20023;-81
2023/05/14 04:40:31;;;;;;;12.50;8.18;;;;;;;14.86;100.00;97915.34;5094927;28;20024;-80
2023/05/14 04:42:57;;;;;;;13.43;7.85;;;;;;;15.08;100.00;97923.56;5112221;28;20453;-81
2023/05/14 04:45:22;;;;;;;14.65;8.68;;;;;;;15.16;100.00;97905.84;5111437;28;20114;-81
2023/05/14 04:47:48;;;;;;;14.15;7.53;;;;;;;15.06;100.00;97888.66;5113338;28;20038;-81
2023/05/14 04:50:14;;;;;;;10.27;7.28;;;;;;;15.10;100.00;97871.25;5095480;28;20042;-82
2023/05/14 04:52:45;;;;;;;16.45;9.07;;;;;;;15.14;100.00;97878.16;5112414;28;20038;-84
2023/05/14 04:55:10;;;;;;;27.30;15.98;;;;;;;15.13;100.00;97875.59;5095974;28;20101;-82
2023/05/14 04:57:36;;;;;;;15.63;9.82;;;;;;;15.10;100.00;97889.28;5115539;28;20484;-82
2023/05/14 05:00:04;;;;;;;13.48;8.32;;;;;;;15.10;100.00;97891.97;5113710;28;20023;-83
2023/05/14 05:02:30;;;;;;;14.50;8.73;;;;;;;15.17;100.00;97885.13;5095672;28;20028;-82
2023/05/14 05:04:55;;;;;;;17.10;9.25;;;;;;;15.20;100.00;97893.00;5111818;28;20403;-82
2023/05/14 05:07:21;;;;;;;16.88;11.02;;;;;;;15.10;100.00;97867.72;5114203;28;20027;-82
2023/05/14 05:09:46;;;;;;;19.27;11.25;;;;;;;15.23;100.00;97898.16;5094946;28;20031;-82
2023/05/14 05:12:12;;;;;;;22.10;12.05;;;;;;;15.29;100.00;97900.38;5111768;28;20051;-83
2023/05/14 05:14:37;;;;;;;16.30;11.65;;;;;;;15.28;100.00;97901.38;5120162;28;20024;-84
2023/05/14 05:17:03;;;;;;;27.00;16.42;;;;;;;15.26;100.00;97906.00;5094857;28;20042;-83
2023/05/14 05:19:28;;;;;;;19.45;12.90;;;;;;;15.23;100.00;97903.53;5094350;28;20114;-82
2023/05/14 05:21:54;;;;;;;40.45;23.85;;;;;;;15.29;100.00;97921.94;5114968;28;20379;-82
2023/05/14 05:24:19;;;;;;;26.02;14.77;;;;;;;15.30;100.00;97925.50;5097569;28;20039;-81
2023/05/14 05:26:45;;;;;;;18.20;11.73;;;;;;;15.30;100.00;97928.19;5094296;28;20080;-82
2023/05/14 05:29:10;;;;;;;16.58;10.25;;;;;;;15.28;100.00;97940.94;5094698;28;20038;-82
2023/05/14 05:31:37;;;;;;;21.15;11.48;;;;;;;15.22;100.00;97941.41;5112248;28;20406;-84
2023/05/14 05:34:02;;;;;;;21.23;12.30;;;;;;;15.10;100.00;97951.25;5094123;28;20067;-83
2023/05/14 05:36:28;;;;;;;25.30;15.98;;;;;;;15.10;100.00;97962.03;5094206;28;20164;-82
2023/05/14 05:38:54;;;;;;;16.45;10.35;;;;;;;14.90;100.00;97968.88;5110693;28;20031;-82
2023/05/14 05:41:21;;;;;;;15.30;9.60;;;;;;;14.91;100.00;97988.59;5111265;28;20110;-82
2023/05/14 05:43:46;;;;;;;14.55;9.40;;;;;;;14.83;100.00;97996.34;5094687;28;20037;-81
2023/05/14 05:46:12;;;;;;;17.35;10.95;;;;;;;14.92;100.00;98007.31;5094864;28;20027;-81
2023/05/14 05:48:37;;;;;;;22.45;13.55;;;;;;;14.90;100.00;98000.34;5106511;28;20081;-80
2023/05/14 05:51:03;;;;;;;60.28;31.80;;;;;;;14.96;100.00;98005.28;5094126;28;20051;-81
2023/05/14 05:53:28;;;;;;;17.02;10.40;;;;;;;14.94;100.00;97983.84;5111480;28;20031;-81
2023/05/14 05:55:54;;;;;;;14.30;9.48;;;;;;;14.93;100.00;97981.25;5112065;28;20028;-80
2023/05/14 05:58:19;;;;;;;16.00;8.85;;;;;;;14.95;100.00;97984.72;5119878;28;20115;-83
2023/05/14 06:00:45;;;;;;;18.00;9.98;;;;;;;14.82;100.00;97994.66;5110291;28;20020;-81
2023/05/14 06:03:11;;;;;;;11.93;8.25;;;;;;;14.79;100.00;97998.44;5086868;28;20023;-80
2023/05/14 06:05:37;;;;;;;13.93;9.60;;;;;;;14.65;100.00;98003.91;5094749;28;20036;-82
2023/05/14 06:08:05;;;;;;;19.27;12.73;;;;;;;14.74;100.00;98013.16;5112005;28;20019;-82
2023/05/14 06:10:31;;;;;;;23.98;13.40;;;;;;;14.73;100.00;98038.41;5093734;28;20491;-80
2023/05/14 06:12:56;;;;;;;10.10;7.35;;;;;;;14.68;100.00;97992.06;5093575;28;20030;-82
2023/05/14 06:15:22;;;;;;;12.05;8.57;;;;;;;14.55;100.00;97994.78;5093785;28;20019;-83
2023/05/14 06:17:47;;;;;;;9.70;5.60;;;;;;;14.47;100.00;97987.25;5094358;28;20050;-83
2023/05/14 06:20:13;;;;;;;16.77;8.32;;;;;;;14.32;100.00;97972.13;5094067;28;20023;-82
2023/05/14 06:22:43;;;;;;;11.88;6.88;;;;;;;14.09;100.00;97919.06;5094646;28;20517;-82
2023/05/14 06:25:09;;;;;;;10.38;6.88;;;;;;;13.84;100.00;97914.53;5109226;28;20031;-81
2023/05/14 06:27:37;;;;;;;23.17;13.75;;;;;;;13.75;100.00;97914.31;5095003;28;20030;-82
2023/05/14 06:30:03;;;;;;;43.85;24.77;;;;;;;13.65;100.00;97915.91;5097230;28;20030;-84
2023/05/14 06:32:29;;;;;;;18.05;10.65;;;;;;;13.53;100.00;97906.88;5094903;28;20503;-82
2023/05/14 06:34:54;;;;;;;14.45;9.85;;;;;;;13.49;100.00;97924.16;5093454;28;20028;-83
2023/05/14 06:37:20;;;;;;;9.40;4.55;;;;;;;13.40;100.00;97909.53;5103362;28;20084;-82
2023/05/14 06:39:48;;;;;;;8.88;6.70;;;;;;;13.43;100.00;97929.94;5110362;28;20084;-82
2023/05/14 06:42:17;;;;;;;6.60;4.63;;;;;;;13.40;100.00;97931.03;5108679;28;20487;-83
2023/05/14 06:44:43;;;;;;;13.75;5.80;;;;;;;13.42;100.00;97939.81;5107924;28;20028;-80
2023/05/14 06:47:08;;;;;;;5.63;4.20;;;;;;;13.45;100.00;97926.19;5108689;28;20035;-81
2023/05/14 06:49:34;;;;;;;4.80;3.42;;;;;;;13.37;100.00;97909.72;5107735;28;20024;-81
2023/05/14 06:52:00;;;;;;;11.73;6.30;;;;;;;13.35;100.00;97921.56;5090414;28;20023;-83
2023/05/14 06:54:26;;;;;;;10.30;4.35;;;;;;;13.38;100.00;97910.59;5108324;28;20080;-79
2023/05/14 06:56:52;;;;;;;7.05;3.90;;;;;;;13.40;100.00;97917.59;5111466;28;20106;-82
2023/05/14 06:59:17;;;;;;;6.70;4.20;;;;;;;13.27;100.00;97903.25;5094049;28;20032;-81
2023/05/14 07:01:43;;;;;;;4.90;3.90;;;;;;;13.13;100.00;97911.38;5094268;28;20521;-80
2023/05/14 07:04:08;;;;;;;16.08;5.80;;;;;;;13.00;100.00;97930.09;5093831;28;20460;-81
2023/05/14 07:06:34;;;;;;;6.00;4.00;;;;;;;12.90;100.00;97922.72;5111089;28;20092;-81
2023/05/14 07:09:06;;;;;;;11.27;5.03;;;;;;;12.82;100.00;97930.41;5094488;28;20028;-84
2023/05/14 07:11:32;;;;;;;6.13;4.25;;;;;;;12.81;100.00;97936.75;5094642;28;20523;-81
2023/05/14 07:13:58;;;;;;;6.18;4.07;;;;;;;12.72;100.00;97938.19;5113841;28;20024;-83
2023/05/14 07:16:24;;;;;;;10.18;7.10;;;;;;;12.55;100.00;97950.97;5094849;28;20100;-82
2023/05/14 07:18:49;;;;;;;10.13;5.35;;;;;;;12.61;100.00;97969.38;5094324;28;20023;-84
2023/05/14 07:21:15;;;;;;;5.60;4.43;;;;;;;12.54;100.00;97957.28;5110769;28;20026;-83
2023/05/14 07:23:40;;;;;;;0.47;0.47;;;;;;;12.36;100.00;97952.13;5093721;28;20024;-84
2023/05/14 07:26:10;;;;;;;0.82;0.80;;;;;;;12.31;100.00;97967.63;5093978;28;20031;-80
2023/05/14 07:28:44;;;;;;;0.57;0.57;;;;;;;12.43;100.00;97993.69;5092881;28;20039;-86
2023/05/14 07:31:10;;;;;;;2.20;0.80;;;;;;;12.28;100.00;97997.34;5111088;28;20027;-83
2023/05/14 07:33:35;;;;;;;1.60;1.00;;;;;;;12.31;100.00;98007.88;5110658;28;20521;-86
2023/05/14 07:36:01;;;;;;;1.55;0.90;;;;;;;12.32;100.00;98016.78;5093435;28;20028;-85
2023/05/14 07:38:27;;;;;;;0.28;0.28;;;;;;;12.28;100.00;98025.97;5093237;28;20038;-84
2023/05/14 07:40:52;;;;;;;0.55;0.22;;;;;;;12.19;100.00;98030.09;5093605;28;20334;-85
2023/05/14 07:43:18;;;;;;;0.75;0.70;;;;;;;12.28;100.00;98053.66;5092983;28;20059;-83
2023/05/14 07:45:44;;;;;;;1.83;1.25;;;;;;;12.24;100.00;98065.53;5093755;28;20032;-81
2023/05/14 07:48:10;;;;;;;1.38;0.85;;;;;;;12.26;100.00;98074.38;5093599;28;20487;-83
2023/05/14 07:50:36;;;;;;;0.63;0.63;;;;;;;12.32;100.00;98065.06;5093296;28;20043;-84
2023/05/14 07:53:01;;;;;;;0.85;0.85;;;;;;;12.36;100.00;98058.56;5093124;28;20557;-75
2023/05/14 07:55:27;;;;;;;0.98;0.82;;;;;;;12.39;100.00;98064.63;5109345;28;20019;-74
2023/05/14 07:57:52;;;;;;;1.38;0.93;;;;;;;12.38;100.00;98056.66;5108536;28;20024;-76
2023/05/14 08:00:18;;;;;;;0.32;0.32;;;;;;;12.32;100.00;98052.53;5108899;28;20043;-76
2023/05/14 08:02:44;;;;;;;0.65;0.52;;;;;;;12.22;100.00;98050.50;5108871;28;20548;-76
2023/05/14 08:05:09;;;;;;;5.28;1.45;;;;;;;12.36;100.00;98070.19;5109029;28;20080;-74
2023/05/14 08:07:35;;;;;;;0.63;0.43;;;;;;;12.42;100.00;98075.16;5090854;28;20035;-76
2023/05/14 08:10:00;;;;;;;0.63;0.63;;;;;;;12.37;100.00;98071.88;5109100;28;20111;-76
2023/05/14 08:12:27;;;;;;;1.23;1.13;;;;;;;12.45;100.00;98082.16;5091534;28;20027;-75
2023/05/14 08:15:02;;;;;;;0.85;0.75;;;;;;;12.55;100.00;98086.00;5108987;28;20084;-76
2023/05/14 08:17:27;;;;;;;2.53;1.00;;;;;;;12.56;100.00;98070.75;5111234;28;20399;-82
2023/05/14 08:19:53;;;;;;;0.80;0.80;;;;;;;12.54;100.00;98070.88;5093733;28;20036;-79
2023/05/14 08:22:18;;;;;;;0.70;0.70;;;;;;;12.50;100.00;98062.13;5093741;28;20368;-80
2023/05/14 08:24:44;;;;;;;1.10;0.95;;;;;;;12.63;100.00;98077.47;5108944;28;20188;-81
2023/05/14 08:27:09;;;;;;;1.20;1.10;;;;;;;12.80;100.00;98085.34;5105229;28;20026;-76
2023/05/14 08:29:35;;;;;;;4.13;0.73;;;;;;;13.25;100.00;98114.72;5110858;28;20403;-76
2023/05/14 08:32:01;;;;;;;2.45;1.33;;;;;;;13.43;100.00;98092.06;5107525;28;20444;-78
2023/05/14 08:34:27;;;;;;;0.68;0.45;;;;;;;13.25;100.00;98073.56;5108711;28;20054;-77
2023/05/14 08:36:53;;;;;;;0.88;0.88;;;;;;;13.24;100.00;98075.38;5091402;28;20391;-77
2023/05/14 08:39:18;;;;;;;3.30;1.17;;;;;;;13.28;100.00;98068.88;5108882;28;20027;-77
2023/05/14 08:41:44;;;;;;;1.95;1.60;;;;;;;13.38;100.00;98078.03;5110152;28;20375;-76
2023/05/14 08:44:20;;;;;;;1.27;1.17;;;;;;;13.63;100.00;98089.91;5108456;28;20035;-76
2023/05/14 08:46:45;;;;;;;0.77;0.63;;;;;;;13.65;100.00;98058.41;5108837;28;20468;-78
2023/05/14 08:49:19;;;;;;;0.38;0.38;;;;;;;13.47;100.00;98034.44;5091464;28;20027;-77
2023/05/14 08:51:48;;;;;;;0.77;0.77;;;;;;;13.43;100.00;98054.44;5110139;28;20567;-78
2023/05/14 08:54:16;;;;;;;0.57;0.57;;;;;;;13.51;100.00;98068.22;5109830;28;20034;-78
2023/05/14 08:56:45;;;;;;;0.35;0.35;;;;;;;13.48;100.00;98059.50;5091706;28;20035;-77
2023/05/14 08:59:12;;;;;;;3.70;1.27;;;;;;;13.48;100.00;98046.91;5110382;28;20031;-88
2023/05/14 09:01:41;;;;;;;0.57;0.57;;;;;;;13.40;100.00;98038.50;5113781;28;20514;-86
2023/05/14 09:04:07;;;;;;;0.65;0.47;;;;;;;13.40;100.00;98043.00;5108910;28;20103;-79
2023/05/14 09:06:38;;;;;;;1.95;1.05;;;;;;;13.44;100.00;98041.88;5109471;28;20023;-79
2023/05/14 09:09:04;;;;;;;0.50;0.50;;;;;;;13.45;100.00;98047.13;5091899;28;20035;-79
2023/05/14 09:11:30;;;;;;;3.50;0.82;;;;;;;13.60;100.00;98053.31;5108247;28;20428;-79
2023/05/14 09:13:55;;;;;;;0.73;0.73;;;;;;;13.91;100.00;98060.19;5091217;28;20027;-78
2023/05/14 09:16:21;;;;;;;0.40;0.40;;;;;;;13.80;100.00;98035.84;5091371;28;20397;-82
2023/05/14 09:18:47;;;;;;;0.82;0.70;;;;;;;13.66;100.00;98015.25;5090948;28;20110;-76
2023/05/14 09:21:14;;;;;;;0.75;0.70;;;;;;;13.70;100.00;98008.72;5107989;28;20118;-80
2023/05/14 09:23:43;;;;;;;1.38;1.25;;;;;;;13.84;100.00;98023.94;5090926;28;20020;-77
2023/05/14 09:26:09;;;;;;;0.40;0.40;;;;;;;14.01;100.00;98018.28;5109023;28;20031;-77
2023/05/14 09:28:34;;;;;;;1.83;1.23;;;;;;;14.24;100.00;98033.72;5108096;28;20050;-78
2023/05/14 09:31:01;;;;;;;1.20;1.08;;;;;;;14.49;100.00;98040.97;5107903;28;20035;-76
2023/05/14 09:33:28;;;;;;;1.30;0.85;;;;;;;14.45;100.00;98018.81;5107593;28;20524;-78
2023/05/14 09:35:58;;;;;;;1.08;1.08;;;;;;;14.25;100.00;98003.13;5090715;28;20111;-76
2023/05/14 09:38:33;;;;;;;1.80;0.85;;;;;;;14.41;100.00;98017.28;5107257;28;20039;-77
2023/05/14 09:40:59;;;;;;;0.30;0.30;;;;;;;14.54;100.00;98038.81;5109375;28;20027;-77
2023/05/14 09:43:25;;;;;;;0.50;0.50;;;;;;;14.51;100.00;98029.13;5091078;28;20046;-77
2023/05/14 09:45:51;;;;;;;1.45;0.50;;;;;;;14.39;100.00;98002.22;5107689;28;20031;-76
2023/05/14 09:48:17;;;;;;;0.80;0.60;;;;;;;14.51;100.00;98009.44;5107044;28;20372;-75
2023/05/14 09:50:43;;;;;;;0.70;0.47;;;;;;;14.73;100.00;98009.63;5107559;28;20031;-76
2023/05/14 09:53:10;;;;;;;0.28;0.28;;;;;;;15.06;100.00;97991.03;5107844;28;20024;-76
2023/05/14 09:55:36;;;;;;;9.40;1.08;;;;;;;15.55;100.00;97977.53;5107736;28;20020;-77
2023/05/14 09:58:02;;;;;;;1.27;0.75;;;;;;;15.89;100.00;97965.03;5090531;28;20031;-77
2023/05/14 10:00:28;;;;;;;1.73;1.30;;;;;;;16.00;100.00;97948.88;5108995;28;20027;-77
2023/05/14 10:02:55;;;;;;;1.52;1.30;;;;;;;15.99;100.00;97912.09;5107864;28;20035;-76
2023/05/14 10:05:22;;;;;;;1.85;1.25;;;;;;;16.08;100.00;97902.41;5107053;28;20040;-76
2023/05/14 10:07:48;;;;;;;7.72;2.45;;;;;;;16.07;100.00;97892.56;5107741;28;20023;-79
2023/05/14 10:10:18;;;;;;;8.68;1.42;;;;;;;16.13;100.00;97901.06;5090343;28;20052;-77
2023/05/14 10:12:52;;;;;;;2.65;1.80;;;;;;;15.94;100.00;97881.00;5101045;28;20027;-78
2023/05/14 10:15:23;;;;;;;0.52;0.43;;;;;;;15.67;100.00;97855.22;5107110;28;20513;-81
2023/05/14 10:17:54;;;;;;;0.73;0.73;;;;;;;15.63;100.00;97840.25;5107819;28;20031;-77
2023/05/14 10:20:19;;;;;;;33.95;1.75;;;;;;;15.85;100.00;97866.41;5107475;28;20034;-78
2023/05/14 10:22:45;;;;;;;0.90;0.40;;;;;;;15.92;100.00;97846.09;5107314;28;20032;-76
2023/05/14 10:25:10;;;;;;;1.95;1.42;;;;;;;15.96;100.00;97844.88;5108482;28;20076;-77
2023/05/14 10:27:36;;;;;;;2.38;1.20;;;;;;;15.91;100.00;97851.56;5107282;28;20046;-73
2023/05/14 10:30:05;;;;;;;1.80;0.82;;;;;;;15.94;100.00;97867.53;5110954;28;20023;-73
2023/05/14 10:32:31;;;;;;;1.80;1.08;;;;;;;16.03;100.00;97832.59;5111471;28;20426;-76
2023/05/14 10:34:57;;;;;;;0.40;0.40;;;;;;;16.23;100.00;97836.41;5111586;28;20023;-79
2023/05/14 10:37:26;;;;;;;0.75;0.60;;;;;;;16.51;100.00;97838.59;5111108;28;20032;-83
2023/05/14 10:39:59;;;;;;;0.40;0.40;;;;;;;16.76;100.00;97816.72;5095158;28;20035;-78
2023/05/14 10:42:39;;;;;;;0.90;0.82;;;;;;;16.84;100.00;97802.59;5111107;28;20035;-80
2023/05/14 10:45:07;;;;;;;1.23;0.82;;;;;;;16.60;100.00;97788.41;5111173;28;20083;-79
2023/05/14 10:47:34;;;;;;;15.15;1.08;;;;;;;16.36;100.00;97782.28;5093713;28;20587;-78
2023/05/14 10:50:03;;;;;;;0.88;0.55;;;;;;;16.23;100.00;97799.47;5111392;28;20384;-79
2023/05/14 10:52:29;;;;;;;0.70;0.40;;;;;;;16.01;100.00;97802.19;5110995;28;20031;-79
2023/05/14 10:54:56;;;;;;;0.20;0.20;;;;;;;15.81;100.00;97818.22;5110896;28;20030;-81
2023/05/14 10:57:24;;;;;;;0.75;0.70;;;;;;;15.65;100.00;97832.91;5111218;28;20027;-80
2023/05/14 10:59:53;;;;;;;1.55;0.98;;;;;;;15.45;100.00;97847.03;5093837;28;20031;-80
2023/05/14 11:02:27;;;;;;;2.38;1.73;;;;;;;15.31;100.00;97863.41;5111332;28;20023;-80
2023/05/14 11:05:09;;;;;;;4.90;2.55;;;;;;;15.11;100.00;97861.34;5110676;28;20475;-80
2023/05/14 11:07:38;;;;;;;2.67;1.83;;;;;;;15.08;100.00;97880.44;5111962;28;20042;-80
2023/05/14 11:10:09;;;;;;;2.22;1.38;;;;;;;15.10;100.00;97879.34;5112309;28;20035;-79
2023/05/14 11:12:37;;;;;;;0.60;0.60;;;;;;;15.24;100.00;97881.00;5110501;28;20050;-79
2023/05/14 11:15:06;;;;;;;1.23;0.80;;;;;;;15.16;100.00;97862.72;5110794;28;20019;-78
2023/05/14 11:17:32;;;;;;;0.52;0.52;;;;;;;15.02;100.00;97821.63;5112024;28;20032;-80